LPMT

Montijo Airport

Montijo, Portugal
TAF LPMT 210503Z 2106/2206 VRB02KT 9999 FEW035 TEMPO 2106/2206 VRB15G25KT 4000 TSRA SCT025CB BECMG 2113/2115 36008KT BECMG 2202/2204 06005KT
Issued Valid From Valid To
Jun-21 @ 05:03 UTC
(5 hours ago)
Jun-21 @ 06:00 UTC
(4 hours ago)
Jun-22 @ 06:00 UTC
(in 20 hours)
Jun-21 @ 06:00 to Jun-21 @ 13:00
TAF LPMT 210503Z 2106/2206 VRB02KT 9999 FEW035
Wind Visibility Clouds
Variable at 2 knots 10,000+ meters
  • Few at 3,500' AGL
Temporary Jun-21 @ 06:00 to Jun-22 @ 06:00
TEMPO 2106/2206 VRB15G25KT 4000 TSRA SCT025CB
Wind Visibility Clouds Conditions
Variable at 15 knots
 Gusting to 25 knots
4,007 meters
  • Scattered at 2,500' AGL
  • Thunderstorm
  • Rain
Becoming Jun-21 @ 13:00 to Jun-22 @ 02:00
BECMG 2113/2115 36008KT
Wind Visibility Clouds
360° at 8 knots 10,000+ meters
  • Few at 3,500' AGL
Becoming Jun-22 @ 02:00 to Jun-22 @ 06:00
BECMG 2202/2204 06005KT
Wind Visibility Clouds
60° at 5 knots 10,000+ meters
  • Few at 3,500' AGL
TAF LPMT 210503Z 2106/2206 VRB02KT 9999 FEW035 TEMPO 2106/2206 VRB15G25KT 4000 TSRA SCT025CB BECMG 2113/2115 36008KT BECMG 2202/2204 06005KT
Issued Jun-21 @ 05:03 UTC
(5 hours ago)
Valid From Jun-21 @ 06:00 UTC
(4 hours ago)
Valid To Jun-22 @ 06:00 UTC
(in 20 hours)
Jun-21 @ 06:00 - Jun-21 @ 13:00
Wind Visibility
Variable at 2 knots 10,000+ meters
Clouds
  • Few at 3,500' AGL
Temporary Jun-21 @ 06:00 - Jun-22 @ 06:00
Wind Visibility
Variable at 15 knots
 Gusting to 25 knots
4,007 meters
Clouds
  • Scattered at 2,500' AGL
Conditions
  • Thunderstorm
  • Rain
Becoming Jun-21 @ 13:00 - Jun-22 @ 02:00
Wind Visibility
360° at 8 knots 10,000+ meters
Clouds
  • Few at 3,500' AGL
Becoming Jun-22 @ 02:00 - Jun-22 @ 06:00
Wind Visibility
60° at 5 knots 10,000+ meters
Clouds
  • Few at 3,500' AGL